Time;durP1;ratioP1;P1;durP2;ratioP2;P2;SDS_P1;SDS_P2;PMS_P1;PMS_P2;Temp;Humidity;BMP_temperature;BMP_pressure;BME280_temperature;BME280_humidity;BME280_pressure;Samples;Min_cycle;Max_cycle;Signal;HPM_P1;HPM_P2
2021/03/31 05:30:56;;;;;;;58.08;34.95;;;;;;;7.59;90.41;101276.92;1768225;77;27117;-57
2021/03/31 05:33:22;;;;;;;58.95;35.73;;;;;;;7.70;90.60;101280.48;1735442;81;25619;-57
2021/03/31 05:35:49;;;;;;;63.45;36.88;;;;;;;7.82;90.88;101289.67;1766596;81;25433;-57
2021/03/31 05:38:15;;;;;;;64.00;37.60;;;;;;;7.90;90.82;101285.11;1768083;81;25309;-57
2021/03/31 05:40:43;;;;;;;65.25;39.90;;;;;;;8.02;91.12;101288.91;1768517;81;26255;-56
2021/03/31 05:43:09;;;;;;;63.48;38.38;;;;;;;8.14;91.18;101289.45;1764991;80;25581;-57
2021/03/31 05:45:37;;;;;;;63.63;36.63;;;;;;;8.26;91.42;101291.06;1767041;81;25443;-56
2021/03/31 05:48:06;;;;;;;61.30;37.40;;;;;;;8.37;91.29;101290.80;1727702;81;25346;-58
2021/03/31 05:50:33;;;;;;;68.12;39.90;;;;;;;8.50;91.52;101290.05;1716859;83;25363;-58
2021/03/31 05:52:59;;;;;;;67.85;41.28;;;;;;;8.62;91.49;101278.98;1716657;82;25785;-57
2021/03/31 05:55:26;;;;;;;64.70;39.48;;;;;;;8.76;91.74;101290.27;1730458;81;25286;-55
2021/03/31 05:57:54;;;;;;;66.95;40.08;;;;;;;8.89;91.65;101290.81;1768442;81;25494;-58
2021/03/31 06:00:22;;;;;;;69.50;42.27;;;;;;;9.02;91.63;101287.52;1767258;81;25522;-57
2021/03/31 06:02:50;;;;;;;76.05;43.10;;;;;;;9.19;91.96;101293.14;1732774;81;25351;-57
2021/03/31 06:05:18;;;;;;;69.82;41.68;;;;;;;9.33;91.99;101286.06;1742724;81;25793;-56
2021/03/31 06:07:47;;;;;;;64.97;41.30;;;;;;;9.50;92.21;101283.02;1765352;81;25470;-57
2021/03/31 06:10:22;;;;;;;68.28;41.42;;;;;;;9.68;91.93;101282.95;1765700;81;25510;-57
2021/03/31 06:12:59;;;;;;;67.62;41.08;;;;;;;9.78;91.58;101278.83;1765501;81;25276;-57
2021/03/31 06:15:41;;;;;;;69.80;42.00;;;;;;;9.88;90.97;101278.77;1765047;81;25352;-58
2021/03/31 06:18:15;;;;;;;72.27;44.65;;;;;;;9.99;91.13;101270.59;1765449;81;25956;-58
2021/03/31 06:21:04;;;;;;;72.22;44.10;;;;;;;10.09;90.42;101270.52;1765464;81;25260;-58
2021/03/31 06:26:31;;;;;;;69.58;46.30;;;;;;;10.31;90.45;101266.58;1765456;81;25284;-58
2021/03/31 06:29:07;;;;;;;74.40;47.55;;;;;;;10.42;90.52;101277.06;1765573;81;25456;-56
2021/03/31 06:31:41;;;;;;;69.35;45.50;;;;;;;10.61;91.17;101276.36;1766804;81;26792;-58
2021/03/31 06:37:01;;;;;;;66.85;43.73;;;;;;;11.01;90.52;101281.88;1889144;76;34590;-57
2021/03/31 06:39:35;;;;;;;63.60;42.70;;;;;;;11.07;90.13;101280.47;1844350;75;25629;-55
2021/03/31 06:42:21;;;;;;;69.85;43.00;;;;;;;11.20;89.78;101285.20;1841044;77;25677;-56
2021/03/31 06:45:10;;;;;;;64.42;42.58;;;;;;;11.30;89.69;101282.92;1846932;75;25829;-55
2021/03/31 06:50:14;;;;;;;69.90;44.20;;;;;;;11.64;89.07;101275.98;1850626;77;25578;-60
2021/03/31 06:53:01;;;;;;;68.62;42.53;;;;;;;11.85;89.75;101278.41;1850985;77;25579;-58
2021/03/31 06:55:31;;;;;;;60.35;38.70;;;;;;;12.10;89.73;101273.98;1850865;77;25688;-57
2021/03/31 06:58:01;;;;;;;56.75;38.13;;;;;;;12.37;89.20;101270.33;1852804;76;25568;-55
2021/03/31 07:00:31;;;;;;;63.15;41.10;;;;;;;12.55;88.39;101269.47;1856464;76;25560;-57
2021/03/31 07:03:03;;;;;;;61.70;41.42;;;;;;;12.77;88.60;101268.81;1848420;75;25354;-58
2021/03/31 07:05:33;;;;;;;64.77;42.08;;;;;;;13.03;88.73;101261.53;1842290;77;25536;-57
2021/03/31 07:08:12;;;;;;;66.47;40.08;;;;;;;13.26;88.09;101263.77;1859810;77;29600;-58
2021/03/31 07:10:49;;;;;;;57.23;38.55;;;;;;;13.50;88.13;101263.59;1859405;77;25449;-56
2021/03/31 07:13:34;;;;;;;55.88;36.65;;;;;;;13.69;87.07;101261.27;1859629;77;25611;-60
2021/03/31 07:16:04;;;;;;;53.13;36.45;;;;;;;13.80;85.13;101256.65;1843922;75;25595;-57
2021/03/31 07:18:33;;;;;;;51.75;34.83;;;;;;;13.90;84.72;101258.91;1842779;77;25551;-57
2021/03/31 07:21:01;;;;;;;53.78;35.88;;;;;;;14.04;83.98;101254.20;1826044;78;25695;-57
2021/03/31 07:23:28;;;;;;;53.17;36.50;;;;;;;14.09;83.53;101252.72;1825931;78;25497;-56
2021/03/31 07:25:57;;;;;;;56.10;37.08;;;;;;;14.24;83.91;101258.91;1825884;78;25508;-54
2021/03/31 07:28:29;;;;;;;60.55;37.05;;;;;;;14.50;84.46;101254.98;1827220;76;25274;-57
2021/03/31 07:30:58;;;;;;;48.60;33.67;;;;;;;14.75;84.05;101258.98;1857202;77;25495;-58
2021/03/31 07:33:27;;;;;;;53.68;34.45;;;;;;;14.99;82.14;101255.88;1857164;77;25753;-60
2021/03/31 07:35:55;;;;;;;45.80;33.65;;;;;;;15.28;83.47;101258.03;1836921;76;25550;-59
2021/03/31 07:38:25;;;;;;;48.35;33.02;;;;;;;15.55;81.94;101256.73;1822784;78;25481;-58
2021/03/31 07:40:52;;;;;;;;;;;;;;;15.72;81.77;101258.67;1804020;79;25501;-58
2021/03/31 07:43:26;;;;;;;46.15;32.00;;;;;;;15.94;81.43;101257.75;1820890;78;25601;-59
2021/03/31 07:46:05;;;;;;;45.48;31.30;;;;;;;16.28;81.80;101255.53;1833033;77;26550;-56
2021/03/31 07:48:32;;;;;;;46.23;29.27;;;;;;;16.66;81.44;101259.45;1833269;78;25379;-59
2021/03/31 07:51:22;;;;;;;48.05;30.40;;;;;;;17.02;80.18;101257.63;1820954;77;25356;-59
2021/03/31 07:53:50;;;;;;;;;;;;;;;17.32;79.53;101255.70;1836340;78;25567;-59
2021/03/31 07:56:33;;;;;;;37.85;25.25;;;;;;;17.63;77.88;101257.83;1822529;78;25607;-57
2021/03/31 07:59:10;;;;;;;36.63;23.60;;;;;;;17.81;77.47;101259.30;1813005;78;25788;-59
2021/03/31 08:01:44;;;;;;;34.40;24.27;;;;;;;18.01;75.84;101252.80;1740868;81;25535;-58
2021/03/31 08:04:12;;;;;;;29.55;22.00;;;;;;;18.27;75.49;101249.83;1762888;81;25351;-59
2021/03/31 08:06:44;;;;;;;37.00;22.55;;;;;;;18.76;74.78;101248.55;1762840;81;25580;-58
2021/03/31 08:12:06;;;;;;;30.10;19.40;;;;;;;19.40;72.62;101247.03;1888662;76;25350;-59
2021/03/31 08:14:38;;;;;;;26.50;18.62;;;;;;;19.47;71.83;101243.70;1849973;75;26200;-57
2021/03/31 08:17:09;;;;;;;25.72;19.05;;;;;;;19.58;70.88;101244.02;1788670;79;25788;-59
2021/03/31 08:19:41;;;;;;;23.67;17.12;;;;;;;19.71;70.01;101244.80;1798297;79;25920;-58
2021/03/31 08:22:34;;;;;;;26.15;16.40;;;;;;;19.85;69.25;101241.09;1789710;78;25495;-58
2021/03/31 08:25:19;;;;;;;27.22;17.32;;;;;;;20.03;68.22;101248.47;1875653;76;25341;-59
2021/03/31 08:28:08;;;;;;;22.82;17.17;;;;;;;20.07;68.33;101247.98;1825932;78;25481;-55
2021/03/31 08:30:38;;;;;;;25.15;17.95;;;;;;;20.15;67.63;101245.66;1842684;77;32148;-56
2021/03/31 08:33:06;;;;;;;24.60;18.02;;;;;;;20.22;66.91;101245.06;1834841;77;25445;-59
2021/03/31 08:35:36;;;;;;;24.23;17.70;;;;;;;20.29;66.24;101240.33;1825987;78;25332;-58
2021/03/31 08:38:04;;;;;;;26.57;15.95;;;;;;;20.44;65.59;101242.88;1836319;76;25520;-57
2021/03/31 08:40:32;;;;;;;23.80;12.97;;;;;;;20.54;65.10;101238.23;1839502;77;25337;-64
2021/03/31 08:43:01;;;;;;;22.00;13.00;;;;;;;20.47;63.54;101238.84;1854413;76;25751;-56
2021/03/31 08:45:37;;;;;;;24.23;13.07;;;;;;;20.42;63.81;101236.36;1847442;76;25521;-58
2021/03/31 08:48:05;;;;;;;23.18;14.13;;;;;;;20.45;63.44;101234.29;1860435;76;25506;-55
2021/03/31 08:50:36;;;;;;;19.95;13.38;;;;;;;20.59;63.75;101231.69;1859579;77;25516;-57
2021/03/31 08:53:08;;;;;;;19.65;13.45;;;;;;;20.68;62.83;101225.45;1859568;77;25520;-53
2021/03/31 08:55:38;;;;;;;24.90;14.38;;;;;;;20.82;62.29;101227.19;1859644;77;26528;-56
2021/03/31 08:58:09;;;;;;;22.50;15.20;;;;;;;21.02;61.88;101225.86;1859550;77;25264;-54
2021/03/31 09:00:46;;;;;;;22.60;14.03;;;;;;;21.22;61.66;101228.09;1859199;77;25535;-56
2021/03/31 09:03:13;;;;;;;17.92;13.35;;;;;;;21.44;61.29;101230.14;1859230;77;25491;-55
2021/03/31 09:05:48;;;;;;;24.05;13.85;;;;;;;21.70;60.67;101228.73;1831068;77;25709;-55
2021/03/31 09:08:22;;;;;;;24.47;13.75;;;;;;;21.93;60.91;101226.62;1823386;78;25713;-56
2021/03/31 09:10:55;;;;;;;18.27;12.15;;;;;;;22.37;60.43;101225.72;1825907;78;25531;-55
2021/03/31 09:13:26;;;;;;;23.75;13.75;;;;;;;22.97;58.63;101222.93;1789264;80;25460;-56
2021/03/31 09:15:56;;;;;;;19.15;12.63;;;;;;;23.05;56.85;101214.16;1810808;78;25555;-57
2021/03/31 09:18:22;;;;;;;19.35;13.32;;;;;;;23.34;57.47;101211.83;1782594;79;25822;-55
2021/03/31 09:20:50;;;;;;;18.10;11.25;;;;;;;23.69;55.57;101208.72;1787403;80;26040;-57
2021/03/31 09:23:25;;;;;;;13.40;10.18;;;;;;;23.83;55.71;101199.83;1788828;79;25616;-57
2021/03/31 09:26:02;;;;;;;17.55;10.80;;;;;;;24.08;55.60;101204.24;1808958;78;25565;-56
2021/03/31 09:28:31;;;;;;;23.75;14.55;;;;;;;24.43;54.35;101202.97;1783535;80;25443;-57
2021/03/31 09:31:06;;;;;;;24.98;14.78;;;;;;;24.69;53.51;101192.92;1784021;79;25503;-55
2021/03/31 09:33:33;;;;;;;31.52;16.37;;;;;;;24.87;50.47;101180.61;1782998;80;26171;-58
2021/03/31 09:36:14;;;;;;;21.63;15.93;;;;;;;24.88;51.56;101188.53;1773710;80;25357;-56
2021/03/31 09:38:41;;;;;;;22.32;17.23;;;;;;;24.96;50.50;101183.25;1754816;81;25507;-55
2021/03/31 09:41:08;;;;;;;36.58;16.87;;;;;;;24.94;49.96;101179.27;1741566;82;25553;-58
2021/03/31 09:43:35;;;;;;;27.42;15.60;;;;;;;24.79;50.22;101175.61;1741852;82;25463;-57
2021/03/31 09:46:02;;;;;;;18.32;12.68;;;;;;;24.98;50.95;101171.80;1741795;82;25800;-55
2021/03/31 09:48:30;;;;;;;19.35;11.50;;;;;;;25.44;50.18;101167.69;1733191;82;25514;-56
2021/03/31 09:50:57;;;;;;;19.20;12.23;;;;;;;25.56;45.73;101172.87;1736166;79;25657;-56
2021/03/31 09:53:24;;;;;;;17.55;11.00;;;;;;;25.79;47.04;101172.52;1735765;82;25501;-56
2021/03/31 09:55:53;;;;;;;21.45;12.58;;;;;;;26.07;46.06;101173.20;1738763;81;25658;-56
2021/03/31 09:58:25;;;;;;;18.57;11.60;;;;;;;26.35;46.62;101175.78;1749152;81;26592;-57
2021/03/31 10:00:53;;;;;;;17.73;11.25;;;;;;;26.97;45.30;101165.41;1766336;81;25642;-58
2021/03/31 10:03:23;;;;;;;14.20;10.93;;;;;;;27.18;44.93;101164.58;1766621;81;25461;-56
2021/03/31 10:05:49;;;;;;;16.73;10.93;;;;;;;27.37;44.63;101157.77;1763903;81;25491;-56
2021/03/31 10:08:22;;;;;;;15.83;12.37;;;;;;;27.79;44.00;101160.71;1736188;81;25525;-56
2021/03/31 10:10:58;;;;;;;18.52;12.90;;;;;;;27.99;41.16;101161.02;1766379;81;25708;-56
2021/03/31 10:13:25;;;;;;;15.90;11.35;;;;;;;28.03;41.28;101155.63;1766088;81;25616;-57
2021/03/31 10:16:06;;;;;;;15.60;11.93;;;;;;;28.25;42.73;101158.25;1746291;79;25265;-57
2021/03/31 10:18:33;;;;;;;15.13;10.23;;;;;;;28.61;42.43;101157.95;1735837;82;25575;-57
2021/03/31 10:21:04;;;;;;;16.10;10.50;;;;;;;28.95;40.96;101148.23;1736031;82;25525;-57
2021/03/31 10:23:35;;;;;;;14.15;10.45;;;;;;;28.99;41.07;101138.44;1739037;80;25712;-57
2021/03/31 10:26:24;;;;;;;13.83;9.55;;;;;;;28.96;40.21;101142.05;1786591;80;25641;-57
2021/03/31 10:28:58;;;;;;;16.48;9.48;;;;;;;28.79;39.86;101143.83;1787822;78;25525;-56
2021/03/31 10:31:35;;;;;;;12.90;8.75;;;;;;;28.72;39.58;101140.52;1823103;78;25482;-57
2021/03/31 10:34:03;;;;;;;16.77;10.00;;;;;;;28.74;39.42;101136.74;1791505;78;25758;-55
2021/03/31 10:54:13;;;;;;;11.43;9.28;;;;;;;28.98;38.85;101113.99;1791365;79;25626;-56
2021/03/31 10:56:47;;;;;;;13.15;10.58;;;;;;;29.07;37.49;101113.48;1787610;80;25519;-56
2021/03/31 10:59:08;;;;;;;;;;;;;;;28.90;38.13;101106.92;1773566;81;25645;-55
2021/03/31 11:01:34;;;;;;;15.80;10.03;;;;;;;28.97;37.35;101108.22;1788204;79;25574;-56
2021/03/31 11:04:01;;;;;;;12.13;9.48;;;;;;;28.92;38.15;101096.77;1802284;78;25700;-56
2021/03/31 11:06:28;;;;;;;15.65;10.28;;;;;;;29.18;38.19;101090.47;1815055;78;25552;-58
2021/03/31 11:08:54;;;;;;;12.95;9.63;;;;;;;29.46;38.32;101093.28;1811334;78;25618;-57
2021/03/31 11:11:21;;;;;;;15.58;9.50;;;;;;;29.67;36.46;101097.15;1798790;79;25567;-56
2021/03/31 11:13:47;;;;;;;12.88;9.63;;;;;;;29.65;37.42;101087.65;1814048;79;25546;-57
2021/03/31 11:16:15;;;;;;;12.45;9.28;;;;;;;29.32;34.76;101089.52;1799358;78;27067;-57
2021/03/31 11:18:57;;;;;;;13.43;9.47;;;;;;;28.64;35.29;101084.16;1799542;79;25632;-56
2021/03/31 11:26:51;;;;;;;15.50;10.30;;;;;;;28.18;36.41;101076.24;1794431;79;25296;-55
2021/03/31 11:29:17;;;;;;;15.40;10.88;;;;;;;27.97;34.24;101071.67;1799570;78;26741;-59
2021/03/31 11:31:43;;;;;;;14.00;10.25;;;;;;;27.46;35.74;101070.61;1788236;79;25551;-59
2021/03/31 11:34:10;;;;;;;13.62;9.88;;;;;;;27.27;36.82;101069.11;1788551;78;25563;-59
2021/03/31 11:36:36;;;;;;;14.10;10.63;;;;;;;27.23;36.61;101067.58;1803804;78;25610;-57
2021/03/31 11:39:05;;;;;;;19.65;13.58;;;;;;;26.98;36.18;101061.53;1776599;78;25571;-57
2021/03/31 11:41:32;;;;;;;17.45;12.20;;;;;;;26.45;36.57;101064.05;1780901;79;25966;-58
2021/03/31 11:43:58;;;;;;;16.77;12.55;;;;;;;26.20;37.04;101061.31;1778531;78;25596;-57
2021/03/31 11:46:25;;;;;;;15.95;11.30;;;;;;;25.76;36.97;101057.54;1774644;78;26404;-57
2021/03/31 11:48:52;;;;;;;18.25;11.48;;;;;;;25.42;37.90;101055.12;1787745;79;25667;-57
2021/03/31 11:51:18;;;;;;;15.30;9.83;;;;;;;25.31;38.76;101052.34;1797220;78;25563;-57
2021/03/31 11:53:45;;;;;;;17.55;12.65;;;;;;;25.24;39.08;101044.77;1794321;78;25681;-56
2021/03/31 11:56:11;;;;;;;21.97;12.25;;;;;;;25.11;37.55;101036.02;1809778;78;25592;-56
2021/03/31 11:58:37;;;;;;;19.67;13.80;;;;;;;24.87;38.91;101043.66;1779820;80;25561;-56
2021/03/31 12:01:05;;;;;;;18.85;13.32;;;;;;;24.71;38.88;101036.48;1792641;79;26263;-56
2021/03/31 12:03:31;;;;;;;16.27;11.80;;;;;;;24.48;39.13;101029.02;1800577;79;25494;-56
2021/03/31 12:05:58;;;;;;;17.80;13.18;;;;;;;24.50;40.79;101031.61;1771733;79;25775;-56
2021/03/31 12:08:24;;;;;;;22.17;13.30;;;;;;;24.69;39.75;101026.97;1767680;80;25588;-54
2021/03/31 12:10:51;;;;;;;21.35;13.22;;;;;;;24.80;39.53;101020.30;1773421;80;25526;-57
2021/03/31 12:13:19;;;;;;;21.00;12.50;;;;;;;25.10;40.41;101019.84;1761668;81;25765;-56
2021/03/31 12:15:46;;;;;;;16.32;12.25;;;;;;;25.49;40.29;101023.31;1761818;81;25485;-56
2021/03/31 12:18:13;;;;;;;15.75;12.47;;;;;;;25.88;39.69;101019.73;1761646;81;25742;-56
2021/03/31 12:20:40;;;;;;;16.07;12.90;;;;;;;26.04;40.14;101006.30;1761640;81;25559;-57
2021/03/31 12:23:07;;;;;;;16.67;11.83;;;;;;;26.57;39.74;101008.73;1761583;81;25519;-57
2021/03/31 12:25:34;;;;;;;16.57;11.08;;;;;;;26.74;39.29;101002.95;1761416;81;25254;-57
2021/03/31 12:28:02;;;;;;;16.40;10.60;;;;;;;27.08;39.27;101005.17;1761660;81;25488;-57
2021/03/31 12:30:30;;;;;;;;;;;;;;;27.46;38.09;101002.56;1764352;81;25905;-56
2021/03/31 12:32:57;;;;;;;17.30;11.30;;;;;;;27.41;37.79;101001.60;1761594;81;25510;-56
2021/03/31 12:35:24;;;;;;;17.95;11.00;;;;;;;27.62;38.17;100997.89;1761579;81;25518;-56
2021/03/31 12:37:51;;;;;;;15.80;11.53;;;;;;;27.95;38.11;100995.64;1763431;80;25515;-57
2021/03/31 12:40:19;;;;;;;17.05;9.83;;;;;;;27.99;37.16;100988.64;1761677;81;26159;-56
2021/03/31 12:42:45;;;;;;;12.82;8.65;;;;;;;27.93;35.76;100986.31;1762637;79;25802;-54
2021/03/31 12:45:14;;;;;;;13.18;7.85;;;;;;;27.85;35.04;100980.59;1785023;80;25541;-57
2021/03/31 12:47:41;;;;;;;12.88;8.28;;;;;;;27.65;34.69;100979.02;1761835;80;25617;-56
2021/03/31 12:50:13;;;;;;;11.57;8.75;;;;;;;27.67;35.94;100975.22;1764635;80;25370;-56
2021/03/31 12:52:45;;;;;;;10.90;8.70;;;;;;;27.84;35.03;100972.09;1788080;80;25566;-57
2021/03/31 12:57:56;;;;;;;15.48;9.28;;;;;;;28.01;35.56;100968.16;1849219;76;25571;-56
2021/03/31 13:00:20;;;;;;;11.48;8.25;;;;;;;27.81;34.73;100962.40;1818768;78;25299;-57
2021/03/31 13:02:48;;;;;;;12.88;8.63;;;;;;;27.69;34.69;100960.31;1819438;78;25759;-56
2021/03/31 13:05:14;;;;;;;10.58;9.35;;;;;;;27.70;35.26;100961.90;1819360;78;25477;-56
2021/03/31 13:07:41;;;;;;;12.58;9.53;;;;;;;27.63;33.23;100952.22;1819486;78;25321;-56
2021/03/31 13:10:10;;;;;;;15.13;9.63;;;;;;;27.31;35.32;100955.27;1818959;78;26411;-56
2021/03/31 13:23:27;;;;;;;12.60;8.40;;;;;;;26.46;35.09;100946.38;1796524;77;26408;-58
2021/03/31 13:25:50;;;;;;;13.32;8.88;;;;;;;26.15;35.90;100936.97;1796502;77;26465;-60
2021/03/31 13:31:07;;;;;;;11.85;8.65;;;;;;;26.48;36.59;100933.50;1801264;77;25755;-58
2021/03/31 13:33:35;;;;;;;11.53;8.15;;;;;;;26.08;34.73;100930.88;1794499;77;25525;-57
2021/03/31 13:41:18;;;;;;;14.50;7.87;;;;;;;26.16;36.47;100919.76;1795097;77;26703;-56
2021/03/31 13:43:48;;;;;;;12.68;8.33;;;;;;;26.15;36.53;100918.16;1815181;78;25740;-58
2021/03/31 13:46:16;;;;;;;10.55;7.70;;;;;;;26.04;35.80;100909.89;1816360;79;25536;-58
2021/03/31 13:51:44;;;;;;;11.80;6.85;;;;;;;25.46;36.59;100906.41;1816108;78;25557;-57
2021/03/31 13:54:02;;;;;;;16.48;6.87;;;;;;;25.62;36.70;100904.59;1749026;82;28112;-57
2021/03/31 13:56:36;;;;;;;10.93;7.20;;;;;;;25.58;36.97;100901.05;1749800;81;25666;-58
2021/03/31 13:59:01;;;;;;;13.08;7.00;;;;;;;25.62;36.74;100895.69;1728593;83;25349;-58
2021/03/31 14:01:28;;;;;;;11.40;7.20;;;;;;;25.64;36.61;100890.56;1727441;83;25421;-56
2021/03/31 14:03:55;;;;;;;10.98;6.70;;;;;;;25.64;36.61;100884.21;1740214;82;25448;-57
2021/03/31 14:06:23;;;;;;;12.00;5.45;;;;;;;25.52;35.57;100879.30;1729002;82;26604;-57
2021/03/31 14:08:50;;;;;;;9.85;6.70;;;;;;;25.29;35.47;100881.69;1726843;82;25567;-58
2021/03/31 14:11:16;;;;;;;12.28;6.60;;;;;;;25.05;35.64;100881.85;1739642;82;25468;-58
2021/03/31 14:13:43;;;;;;;10.10;6.95;;;;;;;24.97;37.11;100874.91;1726841;82;25682;-58
2021/03/31 14:16:09;;;;;;;10.15;5.95;;;;;;;25.07;36.81;100872.55;1725678;82;25560;-57
2021/03/31 14:18:38;;;;;;;10.98;6.28;;;;;;;25.19;36.49;100870.77;1738975;82;25710;-57
2021/03/31 14:21:05;;;;;;;9.35;6.25;;;;;;;25.30;36.19;100870.22;1728066;83;25423;-58
2021/03/31 14:23:31;;;;;;;9.33;6.42;;;;;;;25.46;36.02;100865.65;1726481;81;26491;-57
2021/03/31 14:25:58;;;;;;;8.63;6.20;;;;;;;25.53;35.11;100859.31;1741124;81;25274;-57
2021/03/31 14:28:25;;;;;;;11.60;5.62;;;;;;;25.37;34.09;100859.73;1741301;81;25320;-57
2021/03/31 14:30:51;;;;;;;11.12;5.35;;;;;;;25.09;35.05;100855.73;1741205;82;28016;-57
2021/03/31 14:33:18;;;;;;;13.85;6.15;;;;;;;25.08;35.59;100854.75;1739365;82;25651;-59
2021/03/31 14:35:44;;;;;;;10.50;5.60;;;;;;;25.19;35.20;100859.70;1740081;82;25606;-58
2021/03/31 14:38:11;;;;;;;12.20;5.87;;;;;;;25.15;34.40;100845.86;1739911;82;25496;-57
2021/03/31 14:40:37;;;;;;;6.70;4.75;;;;;;;25.10;34.05;100841.33;1741066;82;25410;-56
2021/03/31 14:43:04;;;;;;;7.12;5.17;;;;;;;25.05;34.26;100838.36;1741311;82;25719;-57
2021/03/31 14:45:31;;;;;;;9.78;4.95;;;;;;;25.05;34.15;100827.29;1740985;81;25474;-57
2021/03/31 14:47:59;;;;;;;9.43;5.70;;;;;;;25.14;34.10;100823.52;1741158;82;25474;-59
2021/03/31 14:50:32;;;;;;;11.08;5.67;;;;;;;25.19;34.15;100822.94;1741325;82;25493;-58
2021/03/31 15:00:59;;;;;;;;;;;;;;;25.14;34.51;100812.44;1754865;80;25654;-55
2021/03/31 15:03:26;;;;;;;10.43;6.40;;;;;;;25.05;34.99;100812.67;1744647;81;25728;-56
2021/03/31 15:05:53;;;;;;;14.33;6.33;;;;;;;25.03;35.29;100817.21;1742298;81;25446;-57
2021/03/31 15:08:20;;;;;;;9.08;6.70;;;;;;;24.80;34.73;100812.84;1743202;79;26163;-57
2021/03/31 15:10:46;;;;;;;12.20;6.97;;;;;;;24.57;34.65;100810.45;1750513;79;25580;-57
2021/03/31 15:13:13;;;;;;;9.50;6.87;;;;;;;24.33;34.77;100812.52;1763278;81;26160;-58
2021/03/31 15:15:39;;;;;;;9.25;6.33;;;;;;;24.12;35.23;100807.13;1762747;81;25594;-55
2021/03/31 15:18:06;;;;;;;9.55;6.03;;;;;;;24.00;35.57;100802.74;1749289;79;25689;-57
2021/03/31 15:23:10;;;;;;;11.57;6.30;;;;;;;23.95;36.33;100798.97;1746161;81;25556;-57
2021/03/31 15:25:34;;;;;;;9.55;6.97;;;;;;;23.98;36.27;100796.04;1770108;80;25507;-56
2021/03/31 15:28:01;;;;;;;11.70;6.62;;;;;;;23.85;35.22;100793.63;1796763;79;25354;-59
2021/03/31 15:30:28;;;;;;;9.80;5.53;;;;;;;23.61;35.86;100787.34;1768153;81;25531;-58
2021/03/31 15:32:54;;;;;;;8.55;6.53;;;;;;;23.40;36.17;100783.28;1733297;82;25951;-57
2021/03/31 15:35:21;;;;;;;10.85;6.90;;;;;;;23.19;35.77;100787.27;1733217;82;25281;-57
2021/03/31 15:37:48;;;;;;;10.45;6.95;;;;;;;23.07;36.55;100784.23;1733234;82;25719;-57
2021/03/31 15:40:14;;;;;;;10.53;6.08;;;;;;;22.94;36.41;100789.23;1733245;82;25512;-57
2021/03/31 15:42:41;;;;;;;11.73;6.28;;;;;;;22.77;36.49;100786.53;1735641;81;25493;-58
2021/03/31 15:45:09;;;;;;;8.55;5.80;;;;;;;22.56;36.88;100779.65;1758162;81;28007;-57
2021/03/31 15:50:14;;;;;;;10.13;6.62;;;;;;;22.28;37.39;100782.89;1888931;76;25409;-56
2021/03/31 15:52:41;;;;;;;11.88;6.47;;;;;;;22.04;37.44;100776.50;1859808;77;25455;-56
2021/03/31 15:55:10;;;;;;;9.83;5.90;;;;;;;21.82;37.79;100772.87;1860046;77;25824;-54
2021/03/31 15:57:38;;;;;;;12.98;6.78;;;;;;;21.70;38.25;100774.50;1843537;77;34536;-54
2021/03/31 16:00:08;;;;;;;13.95;7.25;;;;;;;21.59;38.64;100769.42;1835541;77;25136;-55
2021/03/31 16:02:37;;;;;;;11.03;6.67;;;;;;;21.46;39.10;100768.84;1847464;77;25567;-59
2021/03/31 16:05:10;;;;;;;12.63;6.37;;;;;;;21.27;40.11;100771.91;1826442;78;25460;-62
2021/03/31 16:07:34;;;;;;;11.65;6.08;;;;;;;21.00;40.65;100768.35;1834686;77;26224;-61
2021/03/31 16:10:05;;;;;;;10.58;6.80;;;;;;;20.69;41.30;100768.05;1840067;77;25403;-59
2021/03/31 16:12:32;;;;;;;12.82;7.20;;;;;;;20.42;41.83;100769.30;1836837;76;25348;-59
2021/03/31 16:14:58;;;;;;;10.50;6.37;;;;;;;20.15;41.72;100761.53;1845942;76;25556;-58
2021/03/31 16:17:25;;;;;;;12.60;6.80;;;;;;;19.89;42.62;100766.31;1858852;77;25511;-58
2021/03/31 16:19:53;;;;;;;10.55;6.90;;;;;;;19.67;43.25;100763.08;1858703;77;26044;-60
2021/03/31 16:22:20;;;;;;;12.47;6.78;;;;;;;19.45;43.67;100764.56;1859872;77;25618;-60
2021/03/31 16:24:47;;;;;;;13.83;6.90;;;;;;;19.22;44.77;100766.61;1834823;77;25546;-59
2021/03/31 16:27:16;;;;;;;12.65;7.85;;;;;;;19.01;45.93;100763.34;1859903;77;25495;-59
2021/03/31 16:29:55;;;;;;;14.60;7.83;;;;;;;18.80;46.41;100758.11;1855584;77;26342;-62
2021/03/31 16:32:22;;;;;;;11.18;7.22;;;;;;;18.59;46.82;100756.43;1858938;77;25941;-59
2021/03/31 16:34:49;;;;;;;14.15;7.42;;;;;;;18.38;47.18;100751.75;1858494;77;25644;-59
2021/03/31 16:37:16;;;;;;;13.72;7.55;;;;;;;18.23;47.28;100757.41;1858428;77;25553;-58
2021/03/31 16:39:43;;;;;;;11.80;7.55;;;;;;;18.08;48.00;100754.29;1858274;77;25881;-59
2021/03/31 16:42:12;;;;;;;13.95;7.87;;;;;;;17.93;48.33;100749.56;1856364;76;25558;-59
2021/03/31 16:44:39;;;;;;;14.98;7.95;;;;;;;17.79;48.61;100754.00;1802361;79;28042;-58
2021/03/31 16:47:06;;;;;;;14.38;8.00;;;;;;;17.66;49.13;100745.63;1802405;79;25567;-57
2021/03/31 16:49:36;;;;;;;16.40;7.87;;;;;;;17.52;49.73;100748.70;1852584;77;26190;-58
2021/03/31 16:52:07;;;;;;;13.98;7.87;;;;;;;17.39;49.65;100749.31;1798538;79;25575;-58
2021/03/31 16:54:34;;;;;;;13.35;8.20;;;;;;;17.25;50.17;100744.20;1853347;77;25543;-59
2021/03/31 16:57:00;;;;;;;16.32;9.53;;;;;;;17.13;50.54;100745.59;1853157;77;27162;-59
2021/03/31 16:59:28;;;;;;;17.57;7.55;;;;;;;17.01;50.98;100742.28;1854028;77;25513;-59
2021/03/31 17:01:55;;;;;;;13.58;8.63;;;;;;;16.89;51.26;100744.99;1851944;77;25416;-58
2021/03/31 17:04:21;;;;;;;11.18;7.42;;;;;;;16.78;51.08;100737.80;1853464;77;25508;-59
2021/03/31 17:06:50;;;;;;;14.87;7.83;;;;;;;16.68;51.58;100737.66;1852116;77;26186;-57
2021/03/31 17:09:17;;;;;;;12.60;8.28;;;;;;;16.56;52.07;100734.91;1852018;77;26104;-57
2021/03/31 17:11:43;;;;;;;16.37;8.10;;;;;;;16.44;52.06;100738.41;1770398;79;25597;-59
2021/03/31 17:14:13;;;;;;;15.45;7.58;;;;;;;16.32;52.43;100735.08;1788073;80;25546;-59
2021/03/31 17:16:40;;;;;;;14.40;7.72;;;;;;;16.22;52.38;100736.88;1790026;78;26182;-58
2021/03/31 17:19:06;;;;;;;11.25;7.40;;;;;;;16.10;52.96;100734.11;1805091;78;25630;-57
2021/03/31 17:21:34;;;;;;;16.00;8.35;;;;;;;15.99;52.89;100733.16;1805159;78;26269;-57
2021/03/31 17:24:01;;;;;;;12.25;8.53;;;;;;;15.87;53.25;100731.75;1803177;78;25671;-57
2021/03/31 17:26:28;;;;;;;16.42;9.10;;;;;;;15.76;53.85;100731.33;1794098;78;25521;-58
2021/03/31 17:28:54;;;;;;;15.93;8.45;;;;;;;15.66;53.75;100728.98;1787276;80;25664;-57
2021/03/31 17:31:22;;;;;;;17.45;9.38;;;;;;;15.57;54.38;100721.45;1788264;80;25712;-57
2021/03/31 17:33:48;;;;;;;13.88;9.70;;;;;;;15.48;54.36;100726.96;1778072;79;26383;-57
2021/03/31 17:36:15;;;;;;;15.90;10.23;;;;;;;15.41;54.85;100718.48;1777692;79;25617;-57
2021/03/31 17:38:42;;;;;;;13.10;8.85;;;;;;;15.36;55.12;100725.50;1764072;80;26298;-57
2021/03/31 17:41:08;;;;;;;21.17;11.12;;;;;;;15.32;54.79;100724.00;1786341;79;25625;-58
2021/03/31 17:43:35;;;;;;;18.80;11.57;;;;;;;15.26;55.56;100720.67;1795869;79;25552;-57
2021/03/31 17:46:02;;;;;;;17.85;10.50;;;;;;;15.21;55.51;100720.08;1828132;78;25688;-58
2021/03/31 17:48:29;;;;;;;18.87;9.78;;;;;;;15.16;55.54;100718.91;1827287;78;25256;-57
2021/03/31 17:51:02;;;;;;;16.45;12.07;;;;;;;15.07;56.06;100716.23;1811733;78;25573;-57
2021/03/31 17:53:29;;;;;;;16.23;9.60;;;;;;;14.99;55.80;100715.71;1752319;81;25611;-55
2021/03/31 17:55:56;;;;;;;16.70;11.50;;;;;;;14.89;56.46;100716.30;1757625;81;25345;-56
2021/03/31 17:58:23;;;;;;;16.05;9.20;;;;;;;14.80;56.13;100718.84;1736047;82;25787;-58
2021/03/31 18:00:51;;;;;;;15.03;8.73;;;;;;;14.68;56.60;100717.60;1735837;82;25618;-59
2021/03/31 18:03:17;;;;;;;15.40;9.15;;;;;;;14.56;56.60;100718.25;1742092;81;26131;-57
2021/03/31 18:05:45;;;;;;;18.25;10.65;;;;;;;14.44;56.58;100715.41;1767889;81;26227;-52